createdAt,value
2022-09-07T00:00:38.324Z,11.73
2022-09-07T00:03:07.662Z,10.73
2022-09-07T00:05:43.150Z,10.77
2022-09-07T00:08:10.218Z,10.93
2022-09-07T00:10:37.672Z,11.27
2022-09-07T00:13:05.713Z,10.23
2022-09-07T00:15:32.530Z,10.70
2022-09-07T00:18:05.036Z,11.07
2022-09-07T00:20:31.532Z,11.63
2022-09-07T00:22:59.540Z,11.40
2022-09-07T00:25:26.375Z,11.23
2022-09-07T00:27:53.354Z,11.70
2022-09-07T00:30:19.816Z,10.57
2022-09-07T00:32:46.325Z,11.67
2022-09-07T00:35:12.799Z,14.27
2022-09-07T00:37:39.262Z,9.90
2022-09-07T00:40:06.533Z,13.47
2022-09-07T00:42:33.032Z,11.13
2022-09-07T00:45:14.727Z,10.90
2022-09-07T00:48:02.323Z,11.73
2022-09-07T00:50:39.648Z,12.03
2022-09-07T00:53:19.303Z,13.93
2022-09-07T00:55:48.765Z,11.17
2022-09-07T00:58:16.471Z,14.33
2022-09-07T01:00:45.503Z,12.50
2022-09-07T01:03:14.333Z,11.40
2022-09-07T01:05:50.801Z,11.20
2022-09-07T01:08:17.658Z,13.93
2022-09-07T01:10:44.245Z,11.90
2022-09-07T01:13:10.717Z,10.63
2022-09-07T01:16:05.019Z,11.20
2022-09-07T01:18:43.594Z,13.80
2022-09-07T01:21:41.721Z,14.93
2022-09-07T01:24:17.960Z,11.73
2022-09-07T01:27:24.402Z,12.47
2022-09-07T01:30:13.610Z,10.60
2022-09-07T01:33:16.944Z,11.67
2022-09-07T01:36:05.070Z,11.17
2022-09-07T01:38:46.589Z,12.73
2022-09-07T01:41:39.039Z,12.40
2022-09-07T01:44:11.610Z,12.77
2022-09-07T01:46:52.369Z,15.03
2022-09-07T01:49:25.355Z,14.00
2022-09-07T01:51:58.716Z,12.33
2022-09-07T01:54:35.018Z,12.97
2022-09-07T01:57:06.361Z,12.67
2022-09-07T01:59:39.406Z,17.10
2022-09-07T02:02:13.422Z,11.27
2022-09-07T02:04:46.908Z,12.07
2022-09-07T02:07:27.938Z,11.37
2022-09-07T02:10:04.045Z,13.23
2022-09-07T02:12:40.588Z,12.37
2022-09-07T02:15:14.311Z,12.20
2022-09-07T02:17:51.394Z,13.30
2022-09-07T02:20:27.231Z,12.20
2022-09-07T02:23:02.388Z,12.80
2022-09-07T02:25:35.095Z,13.27
2022-09-07T02:28:09.854Z,12.53
2022-09-07T02:30:37.305Z,13.27
2022-09-07T02:33:04.285Z,13.77
2022-09-07T02:35:31.186Z,14.00
2022-09-07T02:38:04.353Z,13.43
2022-09-07T02:40:31.827Z,12.63
2022-09-07T02:43:09.620Z,12.63
2022-09-07T02:46:17.739Z,13.50
2022-09-07T02:49:14.875Z,12.10
2022-09-07T02:51:47.317Z,12.93
2022-09-07T02:54:30.000Z,13.97
2022-09-07T02:57:34.455Z,12.10
2022-09-07T03:00:08.429Z,13.53
2022-09-07T03:02:53.479Z,12.20
2022-09-07T03:05:39.672Z,12.50
2022-09-07T03:08:12.019Z,12.70
2022-09-07T03:10:41.831Z,10.10
2022-09-07T03:13:08.538Z,10.63
2022-09-07T03:15:35.104Z,10.30
2022-09-07T03:18:03.363Z,12.23
2022-09-07T03:20:29.864Z,10.87
2022-09-07T03:22:56.543Z,10.57
2022-09-07T03:25:23.211Z,12.43
2022-09-07T03:27:49.766Z,10.97
2022-09-07T03:30:16.344Z,10.73
2022-09-07T03:32:42.903Z,12.00
2022-09-07T03:35:09.876Z,12.17
2022-09-07T03:37:37.300Z,11.27
2022-09-07T03:40:06.690Z,9.83
2022-09-07T03:42:33.414Z,13.13
2022-09-07T03:45:00.018Z,10.83
2022-09-07T03:47:28.306Z,10.40
2022-09-07T03:49:55.037Z,11.43
2022-09-07T03:52:21.561Z,11.37
2022-09-07T03:54:48.117Z,10.53
2022-09-07T03:57:14.646Z,9.90
2022-09-07T03:59:41.171Z,10.67
2022-09-07T04:02:07.773Z,10.47
2022-09-07T04:04:34.345Z,9.20
2022-09-07T04:07:01.081Z,9.40
2022-09-07T04:09:28.479Z,9.83
2022-09-07T04:11:55.260Z,12.47
2022-09-07T04:14:22.004Z,10.53
2022-09-07T04:16:48.884Z,12.30
2022-09-07T04:19:15.423Z,12.13
2022-09-07T04:21:46.686Z,10.17
2022-09-07T04:24:17.474Z,10.40
2022-09-07T04:26:44.801Z,13.33
2022-09-07T04:29:12.378Z,9.87
2022-09-07T04:31:39.653Z,9.63
2022-09-07T04:34:07.440Z,9.73
2022-09-07T04:36:34.471Z,10.37
2022-09-07T04:39:03.250Z,9.20
2022-09-07T04:41:31.379Z,10.00
2022-09-07T04:44:00.887Z,10.10
2022-09-07T04:46:30.326Z,8.70
2022-09-07T04:48:59.311Z,9.53
2022-09-07T04:51:29.006Z,9.20
2022-09-07T04:53:59.781Z,9.57
2022-09-07T04:56:27.078Z,9.07
2022-09-07T04:58:54.435Z,9.63
2022-09-07T05:01:24.645Z,9.67
2022-09-07T05:03:51.535Z,9.70
2022-09-07T05:06:19.446Z,8.80
2022-09-07T05:08:48.771Z,8.57
2022-09-07T05:11:16.278Z,9.83
2022-09-07T05:13:42.935Z,10.40
2022-09-07T05:16:21.502Z,10.17
2022-09-07T05:18:59.776Z,9.73
2022-09-07T05:21:28.515Z,12.00
2022-09-07T05:24:01.151Z,11.03
2022-09-07T05:26:30.707Z,12.77
2022-09-07T05:31:50.885Z,13.53
2022-09-07T05:34:33.260Z,16.23
2022-09-07T05:37:01.108Z,15.03
2022-09-07T05:39:28.423Z,14.63
2022-09-07T05:41:55.722Z,14.07
2022-09-07T05:47:09.970Z,16.43
2022-09-07T05:49:36.494Z,14.60
2022-09-07T05:52:03.197Z,16.20
2022-09-07T05:54:29.925Z,15.83
2022-09-07T05:56:56.763Z,15.57
2022-09-07T05:59:23.617Z,16.63
2022-09-07T06:01:50.300Z,16.90
2022-09-07T06:04:16.828Z,15.80
2022-09-07T06:06:47.830Z,15.33
2022-09-07T06:09:29.834Z,16.47
2022-09-07T06:11:57.794Z,16.73
2022-09-07T06:14:25.030Z,15.17
2022-09-07T06:16:51.568Z,17.50
2022-09-07T06:19:18.058Z,17.73
2022-09-07T06:21:44.457Z,18.57
2022-09-07T06:24:11.084Z,19.50
2022-09-07T06:26:37.589Z,17.57
2022-09-07T06:29:04.018Z,17.50
2022-09-07T06:31:30.931Z,15.43
2022-09-07T06:33:58.231Z,16.30
2022-09-07T06:36:29.884Z,15.97
2022-09-07T06:39:01.389Z,13.70
2022-09-07T06:44:19.997Z,15.50
2022-09-07T06:49:28.662Z,14.03
2022-09-07T06:51:55.750Z,17.40
2022-09-07T06:57:09.391Z,17.33
2022-09-07T06:59:36.617Z,13.53
2022-09-07T07:02:04.147Z,12.40
2022-09-07T07:04:32.399Z,14.53
2022-09-07T07:07:01.105Z,15.33
2022-09-07T07:09:27.735Z,14.37
2022-09-07T07:11:55.087Z,14.23
2022-09-07T07:14:21.683Z,14.20
2022-09-07T07:16:48.181Z,12.13
2022-09-07T07:19:14.794Z,15.87
2022-09-07T07:22:07.820Z,13.57
2022-09-07T07:24:29.772Z,11.87
2022-09-07T07:26:56.707Z,12.80
2022-09-07T07:29:25.103Z,11.13
2022-09-07T07:32:02.232Z,11.47
2022-09-07T07:34:29.076Z,11.90
2022-09-07T07:36:55.884Z,12.20
2022-09-07T07:42:08.993Z,11.77
2022-09-07T07:44:35.393Z,10.77
2022-09-07T07:47:02.636Z,11.07
2022-09-07T07:49:29.074Z,13.40
2022-09-07T07:54:43.154Z,10.93
2022-09-07T07:57:09.669Z,11.80
2022-09-07T07:59:36.108Z,11.30
2022-09-07T08:02:08.706Z,12.20
2022-09-07T08:04:35.824Z,10.23
2022-09-07T08:07:09.599Z,12.87
2022-09-07T08:09:41.728Z,13.70
2022-09-07T08:12:11.082Z,10.17
2022-09-07T08:14:43.149Z,9.77
2022-09-07T08:17:11.151Z,10.17
2022-09-07T08:19:38.202Z,11.83
2022-09-07T08:22:05.302Z,10.87
2022-09-07T08:24:32.103Z,10.97
2022-09-07T08:26:59.192Z,10.47
2022-09-07T08:29:27.143Z,9.67
2022-09-07T08:31:54.143Z,10.67
2022-09-07T08:34:21.786Z,10.57
2022-09-07T08:36:48.261Z,11.53
2022-09-07T08:39:14.754Z,9.10
2022-09-07T08:42:08.698Z,11.83
2022-09-07T08:44:41.420Z,10.60
2022-09-07T08:47:32.036Z,12.00
2022-09-07T08:50:09.756Z,11.33
2022-09-07T08:52:50.711Z,10.50
2022-09-07T08:55:38.885Z,10.83
2022-09-07T08:58:32.252Z,8.70
2022-09-07T09:06:59.415Z,10.40
2022-09-07T09:09:41.624Z,9.57
2022-09-07T09:12:26.817Z,10.87
2022-09-07T09:15:31.067Z,9.60
2022-09-07T09:18:19.401Z,12.57
2022-09-07T09:20:52.242Z,10.40
2022-09-07T09:23:20.262Z,9.20
2022-09-07T09:25:52.912Z,10.30
2022-09-07T09:28:19.514Z,8.73
2022-09-07T09:30:47.843Z,9.83
2022-09-07T09:33:14.298Z,9.03
2022-09-07T09:35:41.335Z,9.40
2022-09-07T09:38:39.483Z,8.77
2022-09-07T09:41:12.020Z,9.40
2022-09-07T09:43:45.793Z,9.23
2022-09-07T09:46:20.787Z,11.10
2022-09-07T09:48:55.977Z,9.90
2022-09-07T09:54:24.928Z,7.47
2022-09-07T09:56:52.141Z,8.07
2022-09-07T10:05:33.219Z,8.07
2022-09-07T10:08:00.072Z,8.63
2022-09-07T10:10:28.831Z,7.33
2022-09-07T10:12:56.369Z,8.10
2022-09-07T10:15:39.723Z,7.27
2022-09-07T10:18:16.198Z,7.35
2022-09-07T10:20:42.748Z,6.17
2022-09-07T10:23:21.221Z,6.70
2022-09-07T10:25:47.881Z,6.87
2022-09-07T10:28:22.618Z,6.72
2022-09-07T10:31:31.921Z,7.18
2022-09-07T10:34:32.185Z,6.00
2022-09-07T10:37:08.409Z,6.18
2022-09-07T10:39:39.250Z,6.68
2022-09-07T10:42:15.917Z,6.45
2022-09-07T10:45:30.217Z,7.25
2022-09-07T10:48:27.758Z,6.70
2022-09-07T10:51:05.025Z,6.15
2022-09-07T10:53:46.327Z,7.70
2022-09-07T10:56:21.554Z,7.40
2022-09-07T10:59:26.766Z,7.15
2022-09-07T11:02:21.158Z,9.68
2022-09-07T11:05:00.026Z,6.55
2022-09-07T11:07:47.749Z,7.72
2022-09-07T11:10:26.076Z,7.07
2022-09-07T11:12:58.503Z,6.32
2022-09-07T11:15:28.987Z,7.47
2022-09-07T11:18:01.311Z,3.70
2022-09-07T11:20:30.325Z,4.20
2022-09-07T11:23:07.047Z,5.00
2022-09-07T11:25:40.695Z,3.83
2022-09-07T11:28:20.964Z,2.88
2022-09-07T11:31:01.180Z,3.90
2022-09-07T11:33:33.900Z,2.33
2022-09-07T11:36:11.946Z,2.85
2022-09-07T11:38:47.498Z,6.70
2022-09-07T11:41:19.873Z,3.47
2022-09-07T11:43:50.622Z,3.75
2022-09-07T11:46:43.448Z,2.92
2022-09-07T11:49:19.194Z,2.80
2022-09-07T11:52:05.923Z,4.00
2022-09-07T11:54:38.553Z,2.70
2022-09-07T11:57:13.995Z,3.55
2022-09-07T12:00:13.048Z,4.03
2022-09-07T12:03:19.804Z,2.60
2022-09-07T12:06:19.165Z,4.50
2022-09-07T12:09:10.937Z,3.13
2022-09-07T12:12:10.607Z,3.38
2022-09-07T12:14:54.113Z,2.20
2022-09-07T12:17:47.733Z,2.47
2022-09-07T12:20:21.611Z,2.63
2022-09-07T12:23:04.551Z,2.75
2022-09-07T12:25:33.630Z,3.47
2022-09-07T12:28:25.389Z,3.25
2022-09-07T12:31:02.366Z,2.65
2022-09-07T12:33:33.458Z,6.03
2022-09-07T12:36:01.504Z,3.53
2022-09-07T12:38:30.725Z,1.98
2022-09-07T12:41:03.942Z,3.47
2022-09-07T12:43:33.422Z,3.13
2022-09-07T12:46:01.502Z,2.75
2022-09-07T12:48:52.767Z,4.65
2022-09-07T12:54:52.762Z,2.50
2022-09-07T12:57:58.460Z,2.38
2022-09-07T13:01:00.109Z,2.30
2022-09-07T13:03:52.742Z,4.03
2022-09-07T13:09:28.471Z,2.22
2022-09-07T13:11:57.036Z,3.38
2022-09-07T13:14:38.427Z,2.78
2022-09-07T13:17:27.911Z,2.13
2022-09-07T13:20:05.034Z,1.50
2022-09-07T13:22:35.281Z,4.60
2022-09-07T13:25:25.106Z,3.20
2022-09-07T13:28:03.106Z,3.50
2022-09-07T13:31:04.961Z,1.77
2022-09-07T13:33:34.580Z,4.00
2022-09-07T13:36:06.094Z,2.00
2022-09-07T13:38:36.360Z,1.40
2022-09-07T13:41:12.378Z,2.60
2022-09-07T13:43:39.948Z,3.25
2022-09-07T13:46:18.027Z,2.17
2022-09-07T13:48:50.200Z,3.33
2022-09-07T13:51:39.802Z,3.67
2022-09-07T13:54:42.255Z,3.83
2022-09-07T13:57:31.533Z,3.05
2022-09-07T13:59:59.564Z,2.00
2022-09-07T14:02:33.998Z,2.63
2022-09-07T14:05:01.793Z,5.03
2022-09-07T14:07:30.431Z,2.10
2022-09-07T14:10:17.531Z,2.05
2022-09-07T14:13:08.258Z,2.22
2022-09-07T14:15:43.541Z,2.10
2022-09-07T14:18:19.461Z,2.72
2022-09-07T14:20:49.594Z,2.03
2022-09-07T14:23:23.812Z,2.58
2022-09-07T14:26:17.283Z,2.30
2022-09-07T14:28:46.467Z,1.90
2022-09-07T14:31:15.944Z,2.17
2022-09-07T14:34:00.539Z,2.20
2022-09-07T14:36:46.501Z,1.92
2022-09-07T14:39:17.136Z,2.38
2022-09-07T14:41:44.592Z,2.75
2022-09-07T14:44:31.848Z,2.63
2022-09-07T14:47:10.606Z,2.60
2022-09-07T14:49:37.547Z,2.20
2022-09-07T14:52:04.318Z,5.13
2022-09-07T14:54:34.060Z,2.97
2022-09-07T14:57:27.551Z,2.22
2022-09-07T14:59:56.778Z,3.00
2022-09-07T15:02:35.672Z,3.13
2022-09-07T15:05:14.585Z,4.15
2022-09-07T15:07:46.045Z,2.33
2022-09-07T15:10:35.133Z,2.30
2022-09-07T15:13:03.994Z,4.25
2022-09-07T15:15:32.106Z,3.42
2022-09-07T15:18:08.259Z,5.82
2022-09-07T15:20:40.970Z,3.80
2022-09-07T15:23:15.738Z,3.83
2022-09-07T15:25:48.162Z,3.28
2022-09-07T15:34:09.971Z,2.15
2022-09-07T15:36:37.885Z,2.65
2022-09-07T15:39:05.049Z,3.17
2022-09-07T15:41:32.341Z,3.25
2022-09-07T15:44:00.078Z,4.22
2022-09-07T15:46:27.710Z,3.95
2022-09-07T15:48:55.682Z,2.33
2022-09-07T15:54:13.115Z,2.25
2022-09-07T15:56:41.790Z,2.50
2022-09-07T15:59:10.496Z,3.17
2022-09-07T16:01:54.715Z,3.00
2022-09-07T16:04:24.032Z,5.47
2022-09-07T16:06:50.902Z,3.78
2022-09-07T16:09:17.489Z,6.72
2022-09-07T16:11:44.326Z,3.92
2022-09-07T16:14:12.322Z,3.50
2022-09-07T16:19:35.012Z,5.07
2022-09-07T16:22:03.058Z,4.78
2022-09-07T16:24:29.489Z,3.38
2022-09-07T16:26:56.581Z,2.85
2022-09-07T16:29:23.043Z,5.47
2022-09-07T16:34:36.074Z,4.00
2022-09-07T16:37:03.214Z,3.80
2022-09-07T16:39:33.020Z,3.72
2022-09-07T16:42:00.417Z,3.53
2022-09-07T16:44:27.963Z,4.20
2022-09-07T16:46:55.438Z,4.35
2022-09-07T16:49:22.506Z,6.25
2022-09-07T16:51:49.889Z,4.65
2022-09-07T16:54:16.980Z,4.80
2022-09-07T16:56:43.362Z,4.97
2022-09-07T16:59:15.871Z,4.30
2022-09-07T17:01:43.362Z,4.90
2022-09-07T17:04:11.447Z,9.65
2022-09-07T17:06:39.422Z,10.93
2022-09-07T17:09:07.158Z,12.00
2022-09-07T17:11:36.202Z,6.75
2022-09-07T17:14:06.957Z,8.95
2022-09-07T17:16:37.001Z,8.07
2022-09-07T17:21:53.559Z,8.43
2022-09-07T17:24:21.250Z,11.73
2022-09-07T17:26:47.869Z,10.93
2022-09-07T17:29:14.812Z,13.13
2022-09-07T17:34:31.971Z,9.83
2022-09-07T17:37:01.204Z,10.70
2022-09-07T17:39:28.549Z,10.87
2022-09-07T17:41:56.617Z,9.47
2022-09-07T17:44:23.484Z,11.00
2022-09-07T17:47:00.660Z,8.03
2022-09-07T17:49:29.323Z,11.73
2022-09-07T17:51:58.663Z,8.37
2022-09-07T17:54:26.616Z,7.40
2022-09-07T17:56:53.035Z,7.77
2022-09-07T18:02:05.971Z,8.87
2022-09-07T18:04:32.619Z,10.57
2022-09-07T18:07:07.023Z,8.40
2022-09-07T18:09:33.518Z,8.93
2022-09-07T18:12:00.544Z,9.33
2022-09-07T18:14:30.025Z,11.83
2022-09-07T18:16:59.389Z,9.80
2022-09-07T18:19:26.619Z,9.60
2022-09-07T18:21:53.230Z,10.80
2022-09-07T18:24:22.928Z,10.40
2022-09-07T18:26:52.266Z,10.77
2022-09-07T18:29:31.159Z,10.87
2022-09-07T18:32:04.437Z,9.57
2022-09-07T18:34:32.222Z,10.20
2022-09-07T18:37:04.632Z,10.57
2022-09-07T18:39:32.242Z,10.10
2022-09-07T18:42:23.273Z,8.43
2022-09-07T18:47:36.262Z,10.30
2022-09-07T18:50:07.146Z,9.00
2022-09-07T18:55:20.993Z,8.97
2022-09-07T18:57:47.448Z,9.83
2022-09-07T19:00:14.231Z,9.67
2022-09-07T19:02:41.196Z,10.33
2022-09-07T19:07:55.839Z,9.90
2022-09-07T19:10:22.982Z,10.97
2022-09-07T19:12:49.368Z,12.03
2022-09-07T19:15:15.850Z,13.03
2022-09-07T19:17:42.268Z,12.40
2022-09-07T19:20:09.631Z,12.67
2022-09-07T19:22:36.061Z,12.63
2022-09-07T19:25:03.894Z,12.27
2022-09-07T19:27:32.899Z,11.10
2022-09-07T19:30:03.000Z,11.60
2022-09-07T19:32:31.252Z,10.90
2022-09-07T19:35:00.586Z,10.50
2022-09-07T19:37:31.985Z,11.40
2022-09-07T19:39:59.878Z,12.87
2022-09-07T19:42:28.534Z,11.60
2022-09-07T19:44:55.737Z,12.47
2022-09-07T19:47:23.115Z,9.67
2022-09-07T19:49:49.605Z,10.73
2022-09-07T19:52:16.499Z,10.37
2022-09-07T19:54:43.784Z,11.43
2022-09-07T19:57:10.273Z,13.60
2022-09-07T19:59:36.675Z,10.70
2022-09-07T20:02:04.290Z,12.50
2022-09-07T20:04:30.940Z,12.53
2022-09-07T20:06:58.013Z,11.80
2022-09-07T20:09:27.598Z,12.47
2022-09-07T20:11:57.161Z,11.87
2022-09-07T20:14:23.809Z,10.87
2022-09-07T20:16:51.169Z,12.17
2022-09-07T20:19:18.230Z,12.87
2022-09-07T20:21:44.662Z,10.63
2022-09-07T20:24:12.162Z,10.10
2022-09-07T20:26:38.643Z,12.33
2022-09-07T20:29:26.059Z,13.47
2022-09-07T20:31:53.446Z,12.87
2022-09-07T20:34:20.129Z,12.07
2022-09-07T20:36:49.374Z,14.43
2022-09-07T20:39:16.491Z,13.60
2022-09-07T20:41:43.051Z,14.03
2022-09-07T20:44:09.486Z,13.27
2022-09-07T20:46:36.604Z,14.43
2022-09-07T20:49:04.755Z,15.53
2022-09-07T20:51:32.031Z,14.03
2022-09-07T20:53:58.825Z,13.60
2022-09-07T20:56:28.616Z,16.20
2022-09-07T20:59:05.465Z,15.50
2022-09-07T21:01:36.741Z,14.40
2022-09-07T21:04:04.103Z,13.50
2022-09-07T21:06:32.905Z,15.53
2022-09-07T21:09:06.522Z,16.23
2022-09-07T21:11:35.269Z,15.87
2022-09-07T21:14:07.454Z,16.27
2022-09-07T21:16:35.634Z,13.80
2022-09-07T21:19:05.642Z,15.83
2022-09-07T21:21:39.157Z,14.50
2022-09-07T21:24:12.828Z,16.20
2022-09-07T21:26:39.400Z,15.47
2022-09-07T21:29:05.896Z,13.97
2022-09-07T21:31:33.767Z,15.27
2022-09-07T21:34:02.346Z,15.20
2022-09-07T21:36:29.444Z,16.47
2022-09-07T21:38:56.001Z,16.77
2022-09-07T21:41:25.013Z,16.87
2022-09-07T21:44:03.006Z,14.30
2022-09-07T21:46:32.217Z,16.37
2022-09-07T21:49:00.213Z,16.37
2022-09-07T21:51:27.877Z,18.60
2022-09-07T21:53:57.351Z,18.77
2022-09-07T21:56:24.997Z,18.10
2022-09-07T21:58:58.806Z,16.13
2022-09-07T22:01:28.084Z,15.83
2022-09-07T22:04:00.447Z,16.13
2022-09-07T22:06:31.417Z,17.77
2022-09-07T22:08:58.756Z,17.53
2022-09-07T22:11:30.542Z,17.63
2022-09-07T22:14:02.901Z,17.33
2022-09-07T22:16:31.161Z,17.03
2022-09-07T22:18:58.840Z,18.03
2022-09-07T22:21:28.683Z,16.60
2022-09-07T22:24:00.156Z,16.50
2022-09-07T22:26:32.336Z,15.37
2022-09-07T22:29:00.359Z,17.10
2022-09-07T22:31:30.286Z,16.97
2022-09-07T22:34:00.263Z,17.00
2022-09-07T22:36:36.320Z,20.53
2022-09-07T22:39:10.181Z,17.83
2022-09-07T22:41:38.425Z,16.70
2022-09-07T22:44:06.449Z,19.63
2022-09-07T22:46:36.923Z,16.47
2022-09-07T22:49:05.402Z,16.40
2022-09-07T22:51:32.961Z,18.47
2022-09-07T22:54:03.605Z,17.13
2022-09-07T22:56:32.122Z,16.53
2022-09-07T22:59:03.574Z,17.43
2022-09-07T23:01:32.177Z,16.40
2022-09-07T23:04:00.649Z,17.20
2022-09-07T23:06:29.676Z,17.23
2022-09-07T23:09:03.044Z,18.87
2022-09-07T23:11:29.866Z,16.50
2022-09-07T23:14:00.385Z,15.90
2022-09-07T23:16:28.840Z,15.67
2022-09-07T23:18:58.844Z,15.90
2022-09-07T23:21:27.195Z,16.63
2022-09-07T23:23:56.956Z,16.17
2022-09-07T23:26:26.062Z,15.07
2022-09-07T23:28:57.768Z,17.40
2022-09-07T23:31:28.798Z,16.60
2022-09-07T23:33:58.067Z,16.90
2022-09-07T23:36:26.174Z,15.10
2022-09-07T23:39:13.159Z,17.97
2022-09-07T23:41:39.603Z,18.83
2022-09-07T23:44:06.018Z,18.10
2022-09-07T23:46:33.148Z,19.37
2022-09-07T23:49:00.251Z,21.47
2022-09-07T23:51:27.380Z,20.50
2022-09-07T23:53:54.017Z,22.50
2022-09-07T23:56:24.688Z,23.57
2022-09-07T23:58:51.453Z,23.80
